Time;durP1;ratioP1;P1;durP2;ratioP2;P2;SDS_P1;SDS_P2;PMS_P1;PMS_P2;Temp;Humidity;BMP_temperature;BMP_pressure;BME280_temperature;BME280_humidity;BME280_pressure;Samples;Min_cycle;Max_cycle;Signal;HPM_P1;HPM_P2
2024/01/03 00:00:57;;;;;;;1.37;1.33;;;;;;;5.18;100.00;99183.13;5070074;28;20673;-68
2024/01/03 00:03:25;;;;;;;1.03;1.03;;;;;;;5.21;100.00;99173.78;5070118;28;20238;-68
2024/01/03 00:05:53;;;;;;;0.90;0.90;;;;;;;5.24;100.00;99178.81;5072188;28;20636;-68
2024/01/03 00:08:25;;;;;;;1.70;1.70;;;;;;;5.26;100.00;99171.19;5071370;28;20256;-68
2024/01/03 00:10:54;;;;;;;2.10;2.00;;;;;;;5.27;100.00;99166.06;5069056;28;20656;-68
2024/01/03 00:14:00;;;;;;;0.80;0.80;;;;;;;5.28;100.00;99175.38;5069848;28;20220;-68
2024/01/03 00:16:27;;;;;;;2.13;2.03;;;;;;;5.32;100.00;99185.50;5075113;28;20200;-68
2024/01/03 00:18:56;;;;;;;1.53;1.53;;;;;;;5.29;100.00;99186.41;5073787;28;20664;-67
2024/01/03 00:21:25;;;;;;;0.63;0.63;;;;;;;5.27;100.00;99183.88;5073645;28;20196;-68
2024/01/03 00:23:55;;;;;;;0.93;0.93;;;;;;;5.25;100.00;99185.59;5074557;28;20223;-68
2024/01/03 00:26:23;;;;;;;1.40;1.30;;;;;;;5.13;100.00;99164.59;5073562;28;20200;-68
2024/01/03 00:28:49;;;;;;;0.90;0.90;;;;;;;5.26;100.00;99184.75;5075974;28;20986;-68
2024/01/03 00:31:36;;;;;;;0.70;0.70;;;;;;;5.27;100.00;99183.88;5072187;28;20611;-68
2024/01/03 00:34:03;;;;;;;0.77;0.77;;;;;;;5.28;100.00;99180.47;5073298;28;20247;-69
2024/01/03 00:36:32;;;;;;;0.53;0.53;;;;;;;5.29;100.00;99182.16;5073211;28;20239;-68
2024/01/03 00:38:59;;;;;;;1.57;1.57;;;;;;;5.29;100.00;99177.09;5074788;28;20208;-69
2024/01/03 00:41:26;;;;;;;1.40;1.40;;;;;;;5.30;100.00;99173.66;5075918;28;20680;-68
2024/01/03 00:43:53;;;;;;;2.27;2.23;;;;;;;5.33;100.00;99171.97;5073540;28;20233;-68
2024/01/03 00:46:19;;;;;;;1.17;1.17;;;;;;;5.32;100.00;99171.13;5073302;28;20258;-68
2024/01/03 00:48:46;;;;;;;1.50;1.03;;;;;;;5.32;100.00;99170.28;5069853;28;20203;-68
2024/01/03 00:51:13;;;;;;;1.40;1.40;;;;;;;5.30;100.00;99168.56;5073281;28;20196;-68
2024/01/03 00:53:41;;;;;;;1.57;1.57;;;;;;;5.33;100.00;99171.97;5075611;28;20680;-68
2024/01/03 00:56:08;;;;;;;1.73;1.63;;;;;;;5.36;100.00;99171.91;5070723;28;20196;-68
2024/01/03 00:58:35;;;;;;;1.50;1.50;;;;;;;5.28;100.00;99155.06;5072940;28;20196;-68
2024/01/03 01:01:02;;;;;;;3.23;1.30;;;;;;;5.36;100.00;99162.59;5073181;28;20723;-68
2024/01/03 01:03:29;;;;;;;1.30;1.30;;;;;;;5.43;100.00;99171.78;5074848;28;20192;-68
2024/01/03 01:05:56;;;;;;;1.17;1.17;;;;;;;5.45;100.00;99171.78;5072820;28;20192;-68
2024/01/03 01:08:22;;;;;;;2.50;2.30;;;;;;;5.37;100.00;99150.69;5075484;28;20200;-68
2024/01/03 01:10:50;;;;;;;1.10;1.10;;;;;;;5.45;100.00;99175.19;5072684;28;20753;-68
2024/01/03 01:13:17;;;;;;;0.83;0.83;;;;;;;5.42;100.00;99179.47;5072862;28;20278;-68
2024/01/03 01:15:44;;;;;;;1.30;1.30;;;;;;;5.18;100.00;99148.41;5075746;28;20273;-67
2024/01/03 01:18:10;;;;;;;1.40;1.40;;;;;;;5.39;100.00;99179.50;5074048;28;20553;-68
2024/01/03 01:20:37;;;;;;;1.33;1.33;;;;;;;5.40;100.00;99179.47;5076976;28;20249;-68
2024/01/03 01:23:04;;;;;;;1.10;1.10;;;;;;;5.42;100.00;99187.09;5072603;28;20203;-68
2024/01/03 01:25:31;;;;;;;2.10;2.10;;;;;;;5.29;100.00;99182.16;5072427;28;20265;-67
2024/01/03 01:27:59;;;;;;;1.60;1.60;;;;;;;5.21;100.00;99178.03;5072328;28;20245;-67
2024/01/03 01:30:26;;;;;;;0.93;0.93;;;;;;;5.14;100.00;99189.09;5072209;28;20237;-68
2024/01/03 01:32:52;;;;;;;2.27;2.23;;;;;;;4.98;100.00;99180.81;5073569;28;20203;-68
2024/01/03 01:35:19;;;;;;;1.27;1.27;;;;;;;4.91;100.00;99179.22;5072188;28;20208;-68
2024/01/03 01:37:46;;;;;;;1.50;1.50;;;;;;;4.82;100.00;99184.38;5070959;28;20271;-68
2024/01/03 01:40:13;;;;;;;0.80;0.80;;;;;;;4.77;100.00;99186.16;5072682;28;20660;-68
2024/01/03 01:42:42;;;;;;;1.37;1.37;;;;;;;4.61;100.00;99194.78;5072155;28;20297;-68
2024/01/03 01:45:10;;;;;;;1.53;1.53;;;;;;;4.55;100.00;99199.91;5072183;28;20192;-68
2024/01/03 01:47:38;;;;;;;1.17;1.17;;;;;;;4.49;100.00;99198.25;5072662;28;20200;-69
2024/01/03 01:50:06;;;;;;;0.97;0.97;;;;;;;4.50;100.00;99204.19;5072283;28;20208;-67
2024/01/03 01:52:33;;;;;;;2.00;1.87;;;;;;;4.49;100.00;99200.78;5072034;28;20224;-68
2024/01/03 01:55:00;;;;;;;2.57;2.37;;;;;;;4.49;100.00;99189.81;5071899;28;20212;-68
2024/01/03 01:57:30;;;;;;;1.37;1.37;;;;;;;4.51;100.00;99188.94;5071849;28;20261;-68
2024/01/03 01:59:57;;;;;;;1.10;1.00;;;;;;;4.51;100.00;99190.63;5073465;28;20212;-68
2024/01/03 02:02:25;;;;;;;1.80;1.80;;;;;;;4.48;100.00;99185.59;5073256;28;20660;-68
2024/01/03 02:04:53;;;;;;;1.97;1.73;;;;;;;4.39;100.00;99189.06;5071692;28;20200;-68
2024/01/03 02:07:20;;;;;;;1.13;1.10;;;;;;;4.30;100.00;99186.59;5071541;28;20250;-68
2024/01/03 02:09:47;;;;;;;1.27;1.27;;;;;;;4.21;100.00;99179.91;5071451;28;20200;-69
2024/01/03 02:12:14;;;;;;;2.87;2.77;;;;;;;4.17;100.00;99180.78;5071594;28;20622;-68
2024/01/03 02:14:41;;;;;;;1.13;1.13;;;;;;;4.11;100.00;99173.22;5071371;28;20222;-68
2024/01/03 02:17:08;;;;;;;1.33;1.33;;;;;;;4.19;100.00;99168.94;5071485;28;20204;-69
2024/01/03 02:19:36;;;;;;;0.70;0.70;;;;;;;4.23;100.00;99157.88;5071376;28;20258;-68
2024/01/03 02:22:04;;;;;;;1.30;1.30;;;;;;;4.31;100.00;99154.44;5073409;28;20199;-68
2024/01/03 02:24:31;;;;;;;0.80;0.80;;;;;;;4.37;100.00;99162.00;5071226;28;20614;-68
2024/01/03 02:26:57;;;;;;;1.17;1.17;;;;;;;4.38;100.00;99163.69;5070196;28;20367;-68
2024/01/03 02:29:24;;;;;;;1.37;1.37;;;;;;;4.34;100.00;99165.41;5071273;28;20659;-68
2024/01/03 02:31:51;;;;;;;0.90;0.90;;;;;;;4.28;100.00;99162.94;5070320;28;20203;-68
2024/01/03 02:34:17;;;;;;;1.53;1.53;;;;;;;4.15;100.00;99144.44;5070675;28;20216;-67
2024/01/03 02:36:46;;;;;;;0.90;0.90;;;;;;;4.21;100.00;99154.53;5070809;28;20253;-68
2024/01/03 02:39:14;;;;;;;0.80;0.80;;;;;;;4.29;100.00;99158.69;5070837;28;20204;-69
2024/01/03 02:41:41;;;;;;;0.63;0.63;;;;;;;4.31;100.00;99159.50;5068630;28;20200;-68
2024/01/03 02:44:07;;;;;;;1.30;1.30;;;;;;;4.36;100.00;99147.66;5072485;28;20601;-68
2024/01/03 02:46:34;;;;;;;1.53;1.53;;;;;;;4.34;100.00;99159.47;5077334;28;20630;-69
2024/01/03 02:49:01;;;;;;;0.67;0.67;;;;;;;4.36;100.00;99173.03;5070931;28;20199;-68
2024/01/03 02:51:27;;;;;;;0.67;0.67;;;;;;;4.31;100.00;99164.59;5073072;28;20696;-68
2024/01/03 02:53:54;;;;;;;0.83;0.83;;;;;;;4.26;100.00;99161.25;5075134;28;20216;-68
2024/01/03 02:56:22;;;;;;;1.73;1.73;;;;;;;4.20;100.00;99157.91;5070785;28;20207;-68
2024/01/03 02:58:49;;;;;;;1.97;1.87;;;;;;;4.11;100.00;99149.53;5070773;28;20199;-68
2024/01/03 03:01:16;;;;;;;0.97;0.97;;;;;;;4.12;100.00;99149.53;5071231;28;20250;-68
2024/01/03 03:03:41;;;;;;;1.57;1.57;;;;;;;4.05;100.00;99142.84;5070747;28;20627;-68
2024/01/03 03:06:08;;;;;;;0.97;0.97;;;;;;;4.01;100.00;99151.31;5071180;28;20200;-68
2024/01/03 03:08:35;;;;;;;1.30;1.30;;;;;;;3.95;100.00;99161.50;5070495;28;20204;-68
2024/01/03 03:11:02;;;;;;;1.07;1.07;;;;;;;3.92;100.00;99164.06;5070826;28;20668;-68
2024/01/03 03:13:30;;;;;;;0.90;0.90;;;;;;;3.95;100.00;99153.06;5070495;28;20607;-68
2024/01/03 03:15:57;;;;;;;1.00;1.00;;;;;;;3.98;100.00;99158.94;5070641;28;20250;-68
2024/01/03 03:18:24;;;;;;;1.57;1.57;;;;;;;4.02;100.00;99152.16;5070601;28;20734;-67
2024/01/03 03:20:50;;;;;;;3.70;0.80;;;;;;;4.01;100.00;99151.31;5070797;28;20626;-69
2024/01/03 03:23:17;;;;;;;0.90;0.90;;;;;;;4.07;100.00;99150.44;5068763;28;20631;-68
2024/01/03 03:25:44;;;;;;;1.77;1.77;;;;;;;4.09;100.00;99141.97;5069072;28;20661;-68
2024/01/03 03:28:11;;;;;;;0.60;0.60;;;;;;;4.13;100.00;99146.16;5070625;28;20215;-67
2024/01/03 03:30:39;;;;;;;1.37;1.37;;;;;;;4.09;100.00;99153.78;5070672;28;20664;-68
2024/01/03 03:33:05;;;;;;;1.77;1.77;;;;;;;4.10;100.00;99151.22;5072972;28;20250;-68
2024/01/03 03:35:32;;;;;;;1.93;1.93;;;;;;;4.14;100.00;99146.97;5070922;28;20216;-68
2024/01/03 03:37:59;;;;;;;1.47;1.47;;;;;;;4.20;100.00;99141.88;5070309;28;20253;-68
2024/01/03 03:40:25;;;;;;;0.90;0.90;;;;;;;4.26;100.00;99139.28;5070849;28;20200;-69
2024/01/03 03:42:52;;;;;;;0.90;0.90;;;;;;;4.33;100.00;99143.41;5069271;28;20200;-68
2024/01/03 03:45:19;;;;;;;0.80;0.80;;;;;;;4.34;100.00;99155.25;5070460;28;20192;-68
2024/01/03 03:47:47;;;;;;;1.17;1.17;;;;;;;4.39;100.00;99147.63;5070035;28;20626;-68
2024/01/03 03:50:14;;;;;;;0.80;0.80;;;;;;;4.45;100.00;99147.56;5075249;28;20257;-68
2024/01/03 03:52:41;;;;;;;2.43;2.37;;;;;;;4.46;100.00;99144.16;5075020;28;20215;-68
2024/01/03 03:55:08;;;;;;;1.03;1.03;;;;;;;4.51;100.00;99143.25;5068960;28;20639;-68
2024/01/03 03:57:35;;;;;;;1.63;1.63;;;;;;;4.55;100.00;99144.06;5073919;28;20329;-68
2024/01/03 04:00:04;;;;;;;1.67;1.67;;;;;;;4.59;100.00;99141.47;5074096;28;20207;-68
2024/01/03 04:02:31;;;;;;;1.00;1.00;;;;;;;4.60;100.00;99142.31;5076004;28;20203;-68
2024/01/03 04:04:59;;;;;;;0.80;0.80;;;;;;;4.66;100.00;99152.41;5075472;28;20246;-68
2024/01/03 04:07:26;;;;;;;1.63;1.63;;;;;;;4.69;100.00;99154.91;5075629;28;20196;-68
2024/01/03 04:09:53;;;;;;;0.73;0.73;;;;;;;4.71;100.00;99143.06;5073831;28;20200;-69
2024/01/03 04:12:20;;;;;;;0.83;0.83;;;;;;;4.75;100.00;99147.22;5073934;28;20192;-68
2024/01/03 04:14:47;;;;;;;1.03;1.03;;;;;;;4.78;100.00;99149.75;5074169;28;20749;-68
2024/01/03 04:17:14;;;;;;;0.83;0.83;;;;;;;4.80;100.00;99145.50;5073161;28;20196;-67
2024/01/03 04:19:40;;;;;;;1.13;1.13;;;;;;;4.84;100.00;99129.38;5075636;28;20203;-68
2024/01/03 04:22:09;;;;;;;1.13;1.13;;;;;;;4.88;100.00;99133.53;5078726;28;20254;-68
2024/01/03 04:24:35;;;;;;;0.80;0.80;;;;;;;4.90;100.00;99133.53;5074266;28;20249;-68
2024/01/03 04:27:02;;;;;;;1.33;1.33;;;;;;;4.91;100.00;99122.50;5074158;28;20204;-68
2024/01/03 04:29:29;;;;;;;1.00;1.00;;;;;;;4.95;100.00;99119.91;5073901;28;20249;-68
2024/01/03 04:31:56;;;;;;;0.70;0.70;;;;;;;4.95;100.00;99121.59;5074384;28;20199;-68
2024/01/03 04:34:22;;;;;;;0.90;0.90;;;;;;;4.97;100.00;99118.22;5073337;28;20219;-68
2024/01/03 04:36:49;;;;;;;0.50;0.50;;;;;;;5.02;100.00;99116.44;5073212;28;20200;-68
2024/01/03 04:39:17;;;;;;;1.03;1.03;;;;;;;5.03;100.00;99120.66;5074270;28;20664;-69
2024/01/03 04:41:44;;;;;;;0.97;0.97;;;;;;;5.07;100.00;99119.75;5073302;28;20664;-67
2024/01/03 04:44:10;;;;;;;1.40;1.40;;;;;;;5.04;100.00;99116.44;5072786;28;20200;-68
2024/01/03 04:46:37;;;;;;;2.97;2.77;;;;;;;5.01;100.00;99117.28;5071041;28;20253;-68
2024/01/03 04:49:04;;;;;;;1.07;1.07;;;;;;;4.99;100.00;99121.56;5073155;28;20265;-68
2024/01/03 04:51:31;;;;;;;1.03;1.03;;;;;;;5.00;100.00;99128.31;5074390;28;20232;-68
2024/01/03 04:53:57;;;;;;;1.03;1.03;;;;;;;5.00;100.00;99123.25;5073920;28;20207;-68
2024/01/03 04:56:26;;;;;;;1.13;1.13;;;;;;;4.93;100.00;99136.88;5073026;28;20207;-68
2024/01/03 04:58:52;;;;;;;0.93;0.93;;;;;;;4.93;100.00;99126.72;5072769;28;20200;-68
2024/01/03 05:01:19;;;;;;;0.77;0.77;;;;;;;4.92;100.00;99117.41;5073641;28;20203;-68
2024/01/03 05:03:46;;;;;;;1.73;1.67;;;;;;;4.83;100.00;99114.13;5072907;28;20211;-68
2024/01/03 05:06:13;;;;;;;1.40;1.40;;;;;;;4.90;100.00;99126.75;5072983;28;20200;-68
2024/01/03 05:08:39;;;;;;;2.30;2.20;;;;;;;4.87;100.00;99125.94;5075854;28;20221;-68
2024/01/03 05:11:06;;;;;;;1.00;1.00;;;;;;;4.81;100.00;99116.72;5072566;28;20196;-68
2024/01/03 05:13:34;;;;;;;1.03;0.80;;;;;;;4.78;100.00;99126.06;5072739;28;20226;-68
2024/01/03 05:16:01;;;;;;;0.70;0.70;;;;;;;4.71;100.00;99117.66;5072967;28;20298;-68
2024/01/03 05:18:27;;;;;;;1.10;1.10;;;;;;;4.69;100.00;99126.97;5072421;28;20196;-68
2024/01/03 05:20:54;;;;;;;0.50;0.50;;;;;;;4.54;100.00;99122.06;5075310;28;20196;-68
2024/01/03 05:23:21;;;;;;;0.90;0.90;;;;;;;4.50;100.00;99100.13;5072412;28;20611;-68
2024/01/03 05:25:48;;;;;;;1.23;1.23;;;;;;;4.40;100.00;99090.91;5072595;28;20199;-68
2024/01/03 05:28:15;;;;;;;0.90;0.90;;;;;;;4.34;100.00;99094.34;5072372;28;20243;-68
2024/01/03 05:30:43;;;;;;;0.60;0.60;;;;;;;4.40;100.00;99108.66;5071073;28;20203;-68
2024/01/03 05:33:10;;;;;;;1.00;1.00;;;;;;;4.44;100.00;99125.56;5072015;28;20200;-68
2024/01/03 05:35:36;;;;;;;2.10;2.10;;;;;;;4.46;100.00;99122.13;5072129;28;20592;-68
2024/01/03 05:38:03;;;;;;;0.90;0.90;;;;;;;4.28;100.00;99113.88;5076302;28;20196;-69
2024/01/03 05:40:30;;;;;;;0.60;0.60;;;;;;;4.34;100.00;99118.88;5072103;28;20688;-69
2024/01/03 05:42:56;;;;;;;3.33;3.13;;;;;;;4.43;100.00;99116.25;5071036;28;20257;-68
2024/01/03 05:45:23;;;;;;;0.60;0.60;;;;;;;4.38;100.00;99115.47;5076258;28;20192;-69
2024/01/03 05:47:51;;;;;;;1.37;1.37;;;;;;;4.43;100.00;99126.41;5073306;28;20204;-69
2024/01/03 05:50:18;;;;;;;1.50;1.50;;;;;;;4.47;100.00;99128.06;5077981;28;20196;-68
2024/01/03 05:52:45;;;;;;;1.87;1.87;;;;;;;4.48;100.00;99132.28;5071583;28;20266;-68
2024/01/03 05:55:12;;;;;;;0.97;0.97;;;;;;;4.51;100.00;99130.56;5071844;28;20220;-68
2024/01/03 05:57:38;;;;;;;0.80;0.80;;;;;;;4.56;100.00;99128.81;5069757;28;20212;-68
2024/01/03 06:00:06;;;;;;;0.90;0.90;;;;;;;4.61;100.00;99133.84;5072002;28;20737;-68
2024/01/03 06:02:33;;;;;;;1.33;1.33;;;;;;;4.55;100.00;99141.53;5073111;28;20203;-69
2024/01/03 06:05:01;;;;;;;0.93;0.93;;;;;;;4.68;100.00;99169.31;5073891;28;20200;-68
2024/01/03 06:07:28;;;;;;;1.03;1.03;;;;;;;4.68;100.00;99171.00;5071515;28;20192;-69
2024/01/03 06:09:55;;;;;;;1.77;1.77;;;;;;;4.68;100.00;99171.00;5071463;28;20196;-69
2024/01/03 06:12:22;;;;;;;0.83;0.83;;;;;;;4.65;100.00;99163.44;5069961;28;20200;-69
2024/01/03 06:14:49;;;;;;;0.67;0.67;;;;;;;4.74;100.00;99181.09;5070894;28;20255;-69
2024/01/03 06:17:15;;;;;;;2.43;2.20;;;;;;;4.75;100.00;99172.59;5070987;28;20200;-68
2024/01/03 06:19:44;;;;;;;0.80;0.80;;;;;;;4.82;100.00;99189.47;5071433;28;20265;-68
2024/01/03 06:22:12;;;;;;;0.70;0.70;;;;;;;4.83;100.00;99193.69;5071094;28;20199;-68
2024/01/03 06:24:39;;;;;;;3.90;2.03;;;;;;;4.83;100.00;99195.41;5071384;28;20737;-68
2024/01/03 06:27:06;;;;;;;0.83;0.83;;;;;;;4.81;100.00;99202.19;5071258;28;20257;-68
2024/01/03 06:29:32;;;;;;;1.63;1.50;;;;;;;4.81;100.00;99197.97;5071390;28;20196;-69
2024/01/03 06:32:00;;;;;;;1.70;1.70;;;;;;;4.81;100.00;99218.28;5070990;28;20664;-68
2024/01/03 06:34:27;;;;;;;1.40;1.40;;;;;;;4.82;100.00;99225.03;5070995;28;20200;-68
2024/01/03 06:36:54;;;;;;;1.77;1.77;;;;;;;4.78;100.00;99223.38;5070763;28;20216;-68
2024/01/03 06:39:22;;;;;;;1.47;1.47;;;;;;;4.53;100.00;99201.59;5071794;28;20200;-68
2024/01/03 06:41:48;;;;;;;0.70;0.70;;;;;;;4.54;100.00;99203.31;5070841;28;20204;-69
2024/01/03 06:44:16;;;;;;;1.23;1.23;;;;;;;4.51;100.00;99203.31;5070720;28;20200;-68
2024/01/03 06:46:43;;;;;;;2.13;2.13;;;;;;;4.44;100.00;99201.69;5070736;28;20214;-68
2024/01/03 06:49:09;;;;;;;0.80;0.80;;;;;;;4.39;100.00;99195.84;5070822;28;20256;-68
2024/01/03 06:51:36;;;;;;;0.63;0.63;;;;;;;4.43;100.00;99180.53;5070847;28;20281;-68
2024/01/03 06:54:03;;;;;;;0.77;0.77;;;;;;;4.45;100.00;99190.69;5070885;28;20257;-68
2024/01/03 06:56:31;;;;;;;0.80;0.80;;;;;;;4.45;100.00;99189.00;5070921;28;20634;-68
2024/01/03 06:58:58;;;;;;;0.87;0.87;;;;;;;4.48;100.00;99185.59;5071184;28;20199;-68
2024/01/03 07:01:25;;;;;;;1.17;1.17;;;;;;;4.41;100.00;99181.41;5071868;28;20616;-68
2024/01/03 07:03:52;;;;;;;0.93;0.93;;;;;;;4.40;100.00;99175.50;5071586;28;20204;-61
2024/01/03 07:06:18;;;;;;;0.80;0.80;;;;;;;4.31;100.00;99170.50;5070375;28;20196;-62
2024/01/03 07:08:46;;;;;;;0.97;0.97;;;;;;;4.39;100.00;99178.06;5070613;28;20196;-62
2024/01/03 07:11:12;;;;;;;0.90;0.90;;;;;;;4.38;100.00;99156.06;5071708;28;20761;-62
2024/01/03 07:13:40;;;;;;;2.50;2.40;;;;;;;4.55;100.00;99151.69;5073583;28;20197;-61
2024/01/03 07:16:07;;;;;;;1.17;1.17;;;;;;;4.57;100.00;99152.50;5075130;28;20758;-69
2024/01/03 07:18:34;;;;;;;1.30;1.30;;;;;;;4.65;100.00;99148.19;5072843;28;20192;-69
2024/01/03 07:21:00;;;;;;;2.53;2.43;;;;;;;4.69;100.00;99142.22;5073555;28;20204;-68
2024/01/03 07:23:27;;;;;;;1.20;1.20;;;;;;;4.77;100.00;99130.28;5068449;28;20204;-68
2024/01/03 07:25:54;;;;;;;1.53;1.53;;;;;;;4.83;100.00;99124.28;5071088;28;20206;-68
2024/01/03 07:28:21;;;;;;;1.77;1.77;;;;;;;4.80;100.00;99120.09;5069680;28;20635;-68
2024/01/03 07:30:49;;;;;;;1.47;1.47;;;;;;;4.86;100.00;99125.09;5072231;28;20199;-68
2024/01/03 07:33:16;;;;;;;1.10;1.10;;;;;;;4.90;100.00;99121.66;5072409;28;20261;-69
2024/01/03 07:35:42;;;;;;;1.67;1.57;;;;;;;4.94;100.00;99118.25;5081904;28;20638;-68
2024/01/03 07:38:09;;;;;;;1.43;1.43;;;;;;;4.96;100.00;99126.66;5080513;28;20264;-66
2024/01/03 07:40:36;;;;;;;2.17;2.10;;;;;;;4.87;100.00;99119.16;5074303;28;20203;-67
2024/01/03 07:43:03;;;;;;;1.60;1.60;;;;;;;4.78;100.00;99116.75;5073768;28;20203;-67
2024/01/03 07:45:29;;;;;;;2.73;2.03;;;;;;;4.89;100.00;99109.81;5070590;28;20619;-68
2024/01/03 07:47:57;;;;;;;2.20;2.20;;;;;;;4.83;100.00;99094.66;5073029;28;20192;-67
2024/01/03 07:50:24;;;;;;;2.90;1.47;;;;;;;4.76;100.00;99098.13;5070039;28;20258;-68
2024/01/03 07:52:51;;;;;;;1.67;1.67;;;;;;;4.65;100.00;99084.72;5072408;28;20253;-67
2024/01/03 07:55:17;;;;;;;0.80;0.80;;;;;;;4.77;100.00;99084.59;5072988;28;20269;-69
2024/01/03 07:57:44;;;;;;;1.20;1.20;;;;;;;4.74;100.00;99084.63;5070553;28;20591;-68
2024/01/03 08:00:11;;;;;;;0.73;0.73;;;;;;;4.75;100.00;99086.28;5070497;28;20230;-69
2024/01/03 08:02:38;;;;;;;1.17;1.17;;;;;;;4.86;100.00;99094.63;5070191;28;20196;-68
2024/01/03 08:05:08;;;;;;;0.50;0.50;;;;;;;4.88;100.00;99099.69;5072042;28;20573;-69
2024/01/03 08:07:34;;;;;;;1.17;1.17;;;;;;;4.95;100.00;99094.50;5070066;28;20231;-68
2024/01/03 08:10:01;;;;;;;1.23;1.23;;;;;;;4.92;100.00;99097.09;5070704;28;20710;-69
2024/01/03 08:12:28;;;;;;;3.07;2.97;;;;;;;4.88;100.00;99097.97;5070155;28;20678;-67
2024/01/03 08:14:55;;;;;;;1.30;1.30;;;;;;;4.87;100.00;99087.84;5070145;28;20254;-68
2024/01/03 08:17:22;;;;;;;0.50;0.50;;;;;;;4.88;100.00;99082.72;5070239;28;20222;-68
2024/01/03 08:19:48;;;;;;;1.23;1.23;;;;;;;4.92;100.00;99094.53;5068451;28;20257;-68
2024/01/03 08:22:16;;;;;;;1.33;1.33;;;;;;;4.92;100.00;99104.69;5070548;28;20193;-68
2024/01/03 08:24:44;;;;;;;2.07;2.07;;;;;;;4.99;100.00;99118.16;5069202;28;20200;-68
2024/01/03 08:27:11;;;;;;;1.60;1.53;;;;;;;5.00;100.00;99118.16;5070048;28;20765;-68
2024/01/03 08:29:39;;;;;;;1.70;1.70;;;;;;;5.13;100.00;99108.69;5070189;28;20249;-68
2024/01/03 08:32:07;;;;;;;3.07;2.97;;;;;;;5.23;100.00;99110.25;5069732;28;20200;-68
2024/01/03 08:34:34;;;;;;;3.13;3.07;;;;;;;5.37;100.00;99115.97;5071514;28;20772;-69
2024/01/03 08:37:00;;;;;;;1.70;1.60;;;;;;;5.39;100.00;99118.50;5073125;28;20224;-69
2024/01/03 08:39:29;;;;;;;1.57;1.57;;;;;;;5.40;100.00;99118.47;5073715;28;20207;-69
2024/01/03 08:41:55;;;;;;;2.17;2.13;;;;;;;5.48;100.00;99113.28;5071907;28;20634;-69
2024/01/03 08:44:24;;;;;;;1.90;1.90;;;;;;;5.54;100.00;99111.50;5075340;28;20265;-68
2024/01/03 08:46:51;;;;;;;3.13;3.03;;;;;;;5.55;100.00;99112.34;5073545;28;20192;-69
2024/01/03 08:49:18;;;;;;;2.57;2.20;;;;;;;5.61;100.00;99108.00;5073263;28;20196;-70
2024/01/03 08:51:46;;;;;;;2.03;2.03;;;;;;;5.66;100.00;99097.75;5073133;28;20224;-68
2024/01/03 08:54:12;;;;;;;1.97;1.97;;;;;;;5.73;100.00;99091.69;5073413;28;20579;-69
2024/01/03 08:56:41;;;;;;;1.53;1.53;;;;;;;5.73;100.00;99073.91;5073140;28;20722;-69
2024/01/03 08:59:08;;;;;;;2.00;1.50;;;;;;;5.76;100.00;99081.47;5073039;28;20258;-69
2024/01/03 09:01:35;;;;;;;3.10;1.80;;;;;;;5.81;100.00;99084.81;5072986;28;20630;-69
2024/01/03 09:04:03;;;;;;;1.33;1.30;;;;;;;5.83;100.00;99083.06;5073220;28;20245;-69
2024/01/03 09:06:32;;;;;;;3.90;2.20;;;;;;;5.87;100.00;99079.66;5072672;28;20196;-70
2024/01/03 09:08:58;;;;;;;2.33;2.23;;;;;;;5.90;100.00;99074.50;5073120;28;20208;-68
2024/01/03 09:11:27;;;;;;;1.70;1.70;;;;;;;5.92;100.00;99060.03;5072484;28;20639;-68
2024/01/03 09:13:56;;;;;;;1.23;1.23;;;;;;;5.90;100.00;99061.78;5072681;28;20672;-68
2024/01/03 09:16:26;;;;;;;2.63;1.93;;;;;;;5.93;100.00;99063.44;5072370;28;20247;-69
2024/01/03 09:18:53;;;;;;;1.93;1.80;;;;;;;5.92;100.00;99051.56;5071528;28;20584;-69
2024/01/03 09:21:20;;;;;;;1.60;1.60;;;;;;;5.93;100.00;99038.84;5071908;28;20200;-68
2024/01/03 09:23:46;;;;;;;1.53;1.50;;;;;;;5.87;100.00;99028.78;5072492;28;20261;-68
2024/01/03 09:26:15;;;;;;;3.30;3.20;;;;;;;5.71;100.00;99032.41;5073831;28;20200;-68
2024/01/03 09:28:42;;;;;;;2.03;1.60;;;;;;;5.82;100.00;99035.59;5072735;28;20643;-68
2024/01/03 09:31:11;;;;;;;1.40;1.40;;;;;;;5.90;100.00;99038.91;5072662;28;20231;-68
2024/01/03 09:33:39;;;;;;;1.87;1.87;;;;;;;5.91;100.00;99029.56;5072619;28;20280;-68
2024/01/03 09:36:06;;;;;;;1.70;1.60;;;;;;;5.82;100.00;99012.69;5072776;28;20219;-68
2024/01/03 09:38:33;;;;;;;3.17;1.23;;;;;;;5.93;100.00;99023.56;5072977;28;20196;-68
2024/01/03 09:41:03;;;;;;;0.73;0.73;;;;;;;6.00;100.00;98993.78;5075868;28;20245;-68
2024/01/03 09:43:31;;;;;;;3.43;3.33;;;;;;;5.99;100.00;98989.56;5072110;28;20203;-68
2024/01/03 09:45:58;;;;;;;2.57;2.57;;;;;;;6.02;100.00;98997.97;5074816;28;20196;-69
2024/01/03 09:48:27;;;;;;;3.13;1.70;;;;;;;5.98;100.00;99016.69;5072000;28;20199;-68
2024/01/03 09:50:54;;;;;;;3.37;2.57;;;;;;;5.96;100.00;99015.88;5071458;28;20196;-68
2024/01/03 09:53:21;;;;;;;2.17;2.17;;;;;;;5.98;100.00;99014.16;5070798;28;20263;-67
2024/01/03 09:55:49;;;;;;;1.43;1.33;;;;;;;6.03;100.00;99014.91;5071574;28;20199;-68
2024/01/03 09:58:16;;;;;;;1.83;1.70;;;;;;;6.08;100.00;99018.22;5066632;28;20197;-68
2024/01/03 10:00:43;;;;;;;0.90;0.90;;;;;;;6.14;100.00;99023.19;5069339;28;20204;-68
2024/01/03 10:03:11;;;;;;;0.73;0.73;;;;;;;6.17;100.00;99018.03;5075201;28;20606;-68
2024/01/03 10:05:39;;;;;;;1.70;1.70;;;;;;;6.22;100.00;99021.34;5071327;28;20195;-68
2024/01/03 10:08:16;;;;;;;4.80;1.20;;;;;;;6.20;100.00;99030.69;5070384;28;20208;-68
2024/01/03 10:10:45;;;;;;;1.63;1.60;;;;;;;6.17;100.00;99012.13;5071795;28;20199;-69
2024/01/03 10:13:16;;;;;;;1.93;1.93;;;;;;;6.08;100.00;98997.84;5071221;28;20196;-67
2024/01/03 10:15:45;;;;;;;1.10;1.10;;;;;;;6.14;100.00;98987.56;5071741;28;20191;-67
2024/01/03 10:18:13;;;;;;;6.77;1.23;;;;;;;6.11;100.00;98968.97;5070572;28;20195;-68
2024/01/03 10:20:43;;;;;;;2.93;2.47;;;;;;;6.25;100.00;98984.81;5071760;28;20223;-67
2024/01/03 10:23:13;;;;;;;7.57;2.20;;;;;;;6.28;100.00;98983.03;5071614;28;20291;-68
2024/01/03 10:25:43;;;;;;;1.17;1.17;;;;;;;6.33;100.00;98983.78;5071234;28;20200;-69
2024/01/03 10:28:15;;;;;;;4.30;3.13;;;;;;;6.38;100.00;98970.13;5069829;28;20234;-67
2024/01/03 10:30:48;;;;;;;1.10;1.10;;;;;;;6.39;100.00;98971.81;5071128;28;20200;-67
2024/01/03 10:33:16;;;;;;;1.40;1.40;;;;;;;6.38;100.00;98970.13;5070256;28;20204;-68
2024/01/03 10:35:48;;;;;;;2.23;2.17;;;;;;;6.42;100.00;98966.66;5070458;28;20580;-68
2024/01/03 10:38:17;;;;;;;3.67;2.87;;;;;;;6.45;100.00;98966.59;5069625;28;20195;-69
2024/01/03 10:40:44;;;;;;;3.07;2.90;;;;;;;6.47;100.00;98959.75;5073655;28;20192;-68
2024/01/03 10:43:11;;;;;;;4.33;3.37;;;;;;;6.39;100.00;98938.72;5071181;28;20308;-68
2024/01/03 10:45:38;;;;;;;2.63;1.77;;;;;;;6.51;100.00;98958.81;5070776;28;20192;-68
2024/01/03 10:48:07;;;;;;;1.00;1.00;;;;;;;6.50;100.00;98950.34;5071003;28;20195;-69
2024/01/03 10:50:34;;;;;;;1.67;1.67;;;;;;;6.59;100.00;98950.16;5070637;28;20196;-68
2024/01/03 10:53:09;;;;;;;2.53;2.43;;;;;;;6.43;100.00;98940.34;5070558;28;20322;-68
2024/01/03 10:55:39;;;;;;;3.83;3.70;;;;;;;6.30;100.00;98938.03;5075030;28;20198;-68
2024/01/03 10:58:13;;;;;;;2.83;1.73;;;;;;;6.36;100.00;98936.25;5066211;28;20216;-68
2024/01/03 11:00:51;;;;;;;2.73;2.67;;;;;;;6.39;100.00;98936.19;5069616;28;20257;-68
2024/01/03 11:03:26;;;;;;;1.57;1.57;;;;;;;6.45;100.00;98924.16;5066498;28;20196;-68
2024/01/03 11:06:07;;;;;;;4.77;2.63;;;;;;;6.38;100.00;98921.75;5068232;28;20290;-68
2024/01/03 11:08:45;;;;;;;2.83;0.90;;;;;;;6.41;100.00;98914.06;5069482;28;20257;-68
2024/01/03 11:11:13;;;;;;;2.27;2.07;;;;;;;6.45;100.00;98925.84;5072223;28;20686;-69
2024/01/03 11:13:40;;;;;;;1.07;1.07;;;;;;;6.30;100.00;98921.94;5069798;28;20204;-68
2024/01/03 11:16:09;;;;;;;4.10;3.80;;;;;;;6.39;100.00;98926.84;5068555;28;20265;-68
2024/01/03 11:18:52;;;;;;;6.17;2.47;;;;;;;6.46;100.00;98932.63;5070430;28;20708;-68
2024/01/03 11:21:42;;;;;;;2.83;2.60;;;;;;;6.36;100.00;98911.63;5068661;28;20322;-69
2024/01/03 11:24:46;;;;;;;2.50;2.30;;;;;;;6.54;100.00;98939.22;5067517;28;20191;-69
2024/01/03 11:27:21;;;;;;;2.10;1.93;;;;;;;6.56;100.00;98939.22;5071613;28;20195;-68
2024/01/03 11:29:49;;;;;;;5.43;1.70;;;;;;;6.60;100.00;98926.38;5070994;28;20226;-68
2024/01/03 11:32:25;;;;;;;1.17;1.17;;;;;;;6.62;100.00;98926.34;5071528;28;20203;-69
2024/01/03 11:34:52;;;;;;;2.07;2.07;;;;;;;6.64;100.00;98922.03;5071525;28;20729;-68
2024/01/03 11:37:33;;;;;;;2.10;1.10;;;;;;;6.66;100.00;98940.66;5071575;28;20227;-68